KDED

Deland Municipal-Sidney H Taylor Field Airport

Deland, Florida, USA
METAR KDED 172315Z AUTO 11007KT 10SM CLR 28/23 A3012 RMK AO2
Observed Flight Rules
Oct-17 @ 23:15 UTC (28 minutes ago) Visual Flight Rules
Wind Visibility Clouds
110° at 7 knots 10 miles
  • Clear skies
Temperatures Readings
Current 28°C / 82°F
Dewpoint 23°C / 73°F
Humidity 74%
Altimeter 30.12" Hg
Pressure 1020 hPa
Elevation 24
METAR KDED 172315Z AUTO 11007KT 10SM CLR 28/23 A3012 RMK AO2
Observed Flight Rules
Oct-17 @ 23:15 UTC
(28 minutes ago)
VFR
Wind Visibility
110° at 7 knots 10 miles
Clouds
  • Clear skies
Temperature Dewpoint
28°C / 82°F 23°C / 73°F
Humidity Altimeter Pressure
74% 30.12" Hg 1020 hPa